Time;durP1;ratioP1;P1;durP2;ratioP2;P2;SDS_P1;SDS_P2;PMS_P1;PMS_P2;Temp;Humidity;BMP_temperature;BMP_pressure;BME280_temperature;BME280_humidity;BME280_pressure;Samples;Min_cycle;Max_cycle;Signal;HPM_P1;HPM_P2
2023/06/22 00:00:30;;;;;;;22.70;12.98;;;;;;;18.51;100.00;99516.34;5159303;27;20488;-56
2023/06/22 00:02:56;;;;;;;25.45;13.30;;;;;;;18.47;100.00;99485.84;5159762;27;20073;-58
2023/06/22 00:05:22;;;;;;;22.15;11.68;;;;;;;18.44;100.00;99447.00;5159122;27;20047;-60
2023/06/22 00:07:48;;;;;;;17.35;10.75;;;;;;;18.42;100.00;99375.22;5159097;27;20061;-56
2023/06/22 00:10:15;;;;;;;18.30;10.30;;;;;;;18.41;100.00;99275.72;5159297;27;20058;-54
2023/06/22 00:12:41;;;;;;;17.25;10.45;;;;;;;18.41;100.00;99286.84;5159289;27;20043;-54
2023/06/22 00:15:07;;;;;;;16.58;9.77;;;;;;;18.36;100.00;99254.78;5159377;27;20072;-53
2023/06/22 00:17:33;;;;;;;15.50;10.20;;;;;;;18.29;100.00;99233.47;5159130;27;20159;-60
2023/06/22 00:20:00;;;;;;;17.00;14.45;;;;;;;18.33;100.00;99253.63;5159330;27;20055;-54
2023/06/22 00:22:28;;;;;;;18.20;10.88;;;;;;;18.34;100.00;99230.22;5158842;27;20061;-54
2023/06/22 00:24:54;;;;;;;15.77;13.40;;;;;;;18.30;100.00;99260.00;5159226;27;20050;-56
2023/06/22 00:27:21;;;;;;;16.73;9.93;;;;;;;18.18;100.00;99302.16;5158861;27;20050;-57
2023/06/22 00:29:47;;;;;;;13.90;9.48;;;;;;;18.13;100.00;99354.50;5159221;27;20047;-53
2023/06/22 00:32:12;;;;;;;15.15;10.65;;;;;;;18.13;100.00;99410.81;5158668;27;20047;-58
2023/06/22 00:34:38;;;;;;;20.63;10.77;;;;;;;18.22;100.00;99402.00;5159115;27;20134;-58
2023/06/22 00:37:04;;;;;;;15.90;11.30;;;;;;;18.23;100.00;99404.38;5158928;27;20050;-59
2023/06/22 00:39:32;;;;;;;17.15;15.10;;;;;;;18.16;100.00;99409.19;5158865;27;20061;-53
2023/06/22 00:41:59;;;;;;;16.42;11.05;;;;;;;18.11;100.00;99444.50;5158956;27;20082;-60
2023/06/22 00:44:26;;;;;;;25.58;10.90;;;;;;;18.00;100.00;99479.88;5157693;27;20085;-55
2023/06/22 00:46:54;;;;;;;17.73;12.07;;;;;;;18.05;100.00;99456.44;5158760;27;20094;-54
2023/06/22 00:49:20;;;;;;;16.23;11.77;;;;;;;18.10;100.00;99439.38;5158315;27;20142;-54
2023/06/22 00:51:47;;;;;;;18.25;11.43;;;;;;;18.13;100.00;99407.22;5158879;27;20142;-53
2023/06/22 00:54:13;;;;;;;17.08;11.23;;;;;;;18.11;100.00;99400.13;5158555;27;20058;-56
2023/06/22 00:56:40;;;;;;;20.42;12.07;;;;;;;18.06;100.00;99410.84;5158846;27;20478;-51
2023/06/22 00:59:07;;;;;;;24.17;16.70;;;;;;;17.99;100.00;99449.75;5158371;27;20050;-58
2023/06/22 01:01:34;;;;;;;22.63;12.45;;;;;;;17.91;100.00;99476.75;5158203;27;20046;-59
2023/06/22 01:04:00;;;;;;;21.52;12.70;;;;;;;17.89;100.00;99504.09;5158260;27;20053;-58
2023/06/22 01:06:38;;;;;;;21.55;12.38;;;;;;;17.88;100.00;99506.09;5158145;27;20046;-60
2023/06/22 01:09:15;;;;;;;27.08;12.93;;;;;;;17.90;100.00;99511.25;5158469;27;20043;-57
2023/06/22 01:11:45;;;;;;;31.83;12.90;;;;;;;17.91;100.00;99507.28;5158308;27;20050;-58
2023/06/22 01:14:15;;;;;;;24.20;12.38;;;;;;;17.91;100.00;99498.94;5158548;27;20379;-52
2023/06/22 01:16:44;;;;;;;25.65;13.20;;;;;;;17.96;100.00;99487.44;5158084;27;20042;-57
2023/06/22 01:19:26;;;;;;;29.90;14.07;;;;;;;17.91;100.00;99500.94;5158440;27;20408;-56
2023/06/22 01:21:55;;;;;;;27.50;14.30;;;;;;;17.97;100.00;99524.28;5157896;27;20336;-54
2023/06/22 01:24:27;;;;;;;21.75;12.80;;;;;;;17.91;100.00;99535.00;5158238;27;20054;-59
2023/06/22 01:27:05;;;;;;;23.45;13.27;;;;;;;17.84;100.00;99583.00;5158212;27;20046;-61
2023/06/22 01:29:35;;;;;;;23.30;12.90;;;;;;;17.82;100.00;99606.75;5158006;27;20051;-56
2023/06/22 01:32:03;;;;;;;22.08;13.52;;;;;;;17.85;100.00;99612.28;5158170;27;20141;-56
2023/06/22 01:34:31;;;;;;;24.05;12.52;;;;;;;17.93;100.00;99624.16;5157823;27;20046;-59
2023/06/22 01:36:58;;;;;;;21.35;12.10;;;;;;;17.91;100.00;99607.13;5158229;27;20102;-57
2023/06/22 01:39:24;;;;;;;20.02;12.40;;;;;;;17.93;100.00;99624.16;5157800;27;20149;-54
2023/06/22 01:41:51;;;;;;;21.83;17.25;;;;;;;17.89;100.00;99628.91;5158201;27;20058;-53
2023/06/22 01:44:17;;;;;;;29.83;12.85;;;;;;;17.87;100.00;99625.78;5157724;27;20047;-58
2023/06/22 01:46:45;;;;;;;22.30;11.20;;;;;;;17.95;100.00;99627.31;5157689;27;20053;-56
2023/06/22 01:49:11;;;;;;;25.63;12.35;;;;;;;17.90;100.00;99613.88;5157951;27;20426;-56
2023/06/22 01:51:37;;;;;;;17.70;11.32;;;;;;;17.83;100.00;99619.47;5157893;27;20444;-57
2023/06/22 01:54:03;;;;;;;20.38;12.52;;;;;;;17.85;100.00;99611.50;5158198;27;20145;-56
2023/06/22 01:56:29;;;;;;;21.55;11.50;;;;;;;17.89;100.00;99615.03;5161730;27;20054;-61
2023/06/22 01:59:06;;;;;;;20.25;11.23;;;;;;;17.71;100.00;99623.41;5161660;27;20050;-57
2023/06/22 02:01:37;;;;;;;21.38;12.05;;;;;;;17.91;100.00;99609.13;5161339;27;20046;-58
2023/06/22 02:04:09;;;;;;;17.40;10.98;;;;;;;17.95;100.00;99605.13;5161596;27;20431;-54
2023/06/22 02:06:38;;;;;;;23.15;15.75;;;;;;;17.93;100.00;99582.56;5161053;27;20483;-54
2023/06/22 02:09:10;;;;;;;18.20;15.68;;;;;;;17.88;100.00;99586.53;5161507;27;20475;-55
2023/06/22 02:11:37;;;;;;;18.17;11.55;;;;;;;17.93;100.00;99590.88;5161302;27;20145;-61
2023/06/22 02:14:03;;;;;;;17.35;11.57;;;;;;;17.94;100.00;99602.75;5161261;27;20229;-52
2023/06/22 02:16:32;;;;;;;20.25;15.50;;;;;;;17.92;100.00;99605.13;5161296;27;20046;-57
2023/06/22 02:19:03;;;;;;;19.33;12.00;;;;;;;17.96;100.00;99605.91;5161070;27;20207;-53
2023/06/22 02:21:30;;;;;;;16.58;10.38;;;;;;;17.88;100.00;99611.50;5161298;27;20062;-56
2023/06/22 02:23:56;;;;;;;16.15;10.73;;;;;;;18.28;100.00;99602.97;5160988;27;20145;-58
2023/06/22 02:26:22;;;;;;;24.85;10.57;;;;;;;18.54;100.00;99554.38;5161244;27;20327;-56
2023/06/22 02:28:48;;;;;;;17.20;10.90;;;;;;;18.82;100.00;99481.16;5160732;27;20051;-54
2023/06/22 02:31:14;;;;;;;16.10;10.57;;;;;;;19.07;100.00;99364.19;5161073;27;20051;-58
2023/06/22 02:33:40;;;;;;;14.07;10.95;;;;;;;19.31;100.00;99270.53;5160690;27;20053;-60
2023/06/22 02:36:08;;;;;;;17.75;10.93;;;;;;;19.47;100.00;99142.78;5161099;27;20099;-61
2023/06/22 02:38:36;;;;;;;18.25;11.27;;;;;;;19.77;100.00;99020.66;5160664;27;20051;-60
2023/06/22 02:41:02;;;;;;;22.83;11.55;;;;;;;19.85;100.00;98925.47;5160808;27;20065;-59
2023/06/22 02:43:28;;;;;;;22.25;11.60;;;;;;;20.13;100.00;98792.44;5160887;27;20061;-62
2023/06/22 02:45:54;;;;;;;16.73;10.27;;;;;;;20.17;100.00;98679.03;5160739;27;20137;-59
2023/06/22 02:48:20;;;;;;;19.02;10.40;;;;;;;20.40;100.00;98623.06;5160867;27;20057;-62
2023/06/22 02:50:46;;;;;;;18.33;10.88;;;;;;;20.42;100.00;98553.78;5160500;27;20086;-59
2023/06/22 02:53:12;;;;;;;17.08;10.13;;;;;;;20.90;100.00;98484.22;5160324;27;20198;-59
2023/06/22 02:55:39;;;;;;;16.05;9.88;;;;;;;21.09;100.00;98401.53;5160309;27;20059;-57
2023/06/22 02:58:05;;;;;;;13.85;10.05;;;;;;;21.12;100.00;98340.06;5160838;27;20058;-60
2023/06/22 03:00:31;;;;;;;17.02;10.05;;;;;;;21.47;100.00;98334.41;5160241;27;20050;-55
2023/06/22 03:02:58;;;;;;;20.10;10.35;;;;;;;21.53;100.00;98274.00;5160782;27;20056;-57
2023/06/22 03:05:24;;;;;;;16.45;9.70;;;;;;;21.72;100.00;98254.50;5159755;27;20468;-53
2023/06/22 03:07:50;;;;;;;14.57;10.52;;;;;;;21.89;100.00;98236.22;5159425;27;20428;-61
2023/06/22 03:10:17;;;;;;;14.23;10.20;;;;;;;22.04;100.00;98211.28;5160331;27;20054;-57
2023/06/22 03:12:43;;;;;;;18.95;10.73;;;;;;;22.06;100.00;98192.84;5160262;27;20051;-60
2023/06/22 03:15:11;;;;;;;20.45;9.52;;;;;;;22.45;100.00;98186.75;5160193;27;20495;-58
2023/06/22 03:17:38;;;;;;;19.85;11.05;;;;;;;22.47;100.00;98187.06;5159968;27;20061;-58
2023/06/22 03:20:08;;;;;;;22.10;10.45;;;;;;;22.89;100.00;98189.09;5160345;27;20095;-62
2023/06/22 03:22:34;;;;;;;15.57;9.52;;;;;;;22.88;100.00;98202.28;5159990;27;20050;-53
2023/06/22 03:25:00;;;;;;;16.15;10.18;;;;;;;22.99;100.00;98194.22;5160389;27;20133;-57
2023/06/22 03:27:26;;;;;;;17.38;9.95;;;;;;;23.38;100.00;98219.47;5159816;27;20514;-61
2023/06/22 03:29:53;;;;;;;22.55;10.57;;;;;;;23.43;100.00;98226.47;5160166;27;20084;-60
2023/06/22 03:32:19;;;;;;;15.68;12.65;;;;;;;23.70;100.00;98231.91;5159733;27;20460;-59
2023/06/22 03:34:46;;;;;;;16.52;9.75;;;;;;;23.99;100.00;98274.47;5159677;27;20138;-59
2023/06/22 03:37:13;;;;;;;15.50;12.60;;;;;;;24.02;100.00;98293.09;5159899;27;20046;-58
2023/06/22 03:39:39;;;;;;;14.73;12.80;;;;;;;24.17;100.00;98321.94;5159787;27;20368;-59
2023/06/22 03:42:06;;;;;;;18.30;13.40;;;;;;;24.56;100.00;98331.16;5159740;27;20060;-59
2023/06/22 03:44:32;;;;;;;17.52;13.77;;;;;;;24.79;100.00;98413.63;5159529;27;20061;-54
2023/06/22 03:46:58;;;;;;;15.55;10.45;;;;;;;24.87;100.00;98453.28;5159928;27;20086;-54
2023/06/22 03:49:24;;;;;;;16.95;10.63;;;;;;;25.00;100.00;98450.22;5159481;27;20047;-51
2023/06/22 03:51:50;;;;;;;16.60;11.13;;;;;;;25.23;100.00;98485.09;5160030;27;20360;-55
2023/06/22 03:54:16;;;;;;;21.90;14.15;;;;;;;25.62;100.00;98493.44;5159441;27;20061;-56
2023/06/22 03:56:42;;;;;;;18.35;13.57;;;;;;;25.81;100.00;98543.31;5159806;27;20062;-56
2023/06/22 03:59:07;;;;;;;23.88;13.50;;;;;;;25.94;100.00;98575.97;5159315;27;20105;-57
2023/06/22 04:01:34;;;;;;;18.08;12.88;;;;;;;26.09;100.00;98545.06;5159800;27;20419;-60
2023/06/22 04:04:00;;;;;;;17.98;13.13;;;;;;;26.42;100.00;98568.06;5159173;27;20309;-57
2023/06/22 04:06:26;;;;;;;19.38;12.95;;;;;;;26.43;100.00;98608.97;5159517;27;20383;-61
2023/06/22 04:08:52;;;;;;;18.60;13.50;;;;;;;26.60;100.00;98605.69;5159489;27;20137;-56
2023/06/22 04:11:18;;;;;;;16.05;13.85;;;;;;;26.51;100.00;98561.59;5159176;27;20388;-56
2023/06/22 04:13:44;;;;;;;18.50;12.95;;;;;;;26.52;100.00;98563.13;5159353;27;20043;-54
2023/06/22 04:16:10;;;;;;;18.52;12.70;;;;;;;27.09;100.00;98590.78;5159388;27;20324;-56
2023/06/22 04:18:36;;;;;;;19.10;15.10;;;;;;;27.18;100.00;98630.03;5159349;27;20050;-60
2023/06/22 04:21:03;;;;;;;18.33;12.85;;;;;;;27.36;100.00;98647.94;5159174;27;20085;-60
2023/06/22 04:23:29;;;;;;;15.88;12.15;;;;;;;27.89;100.00;98680.56;5159293;27;20046;-55
2023/06/22 04:25:56;;;;;;;21.27;13.57;;;;;;;28.15;100.00;98717.22;5158884;27;20195;-54
2023/06/22 04:28:22;;;;;;;16.13;12.60;;;;;;;28.26;100.00;98739.91;5159349;27;20138;-56
2023/06/22 04:30:48;;;;;;;18.80;13.18;;;;;;;28.25;100.00;98755.25;5158629;27;20088;-53
2023/06/22 04:33:14;;;;;;;18.38;12.60;;;;;;;28.40;100.00;98720.59;5159208;27;20051;-60
2023/06/22 04:35:41;;;;;;;21.75;14.25;;;;;;;28.90;100.00;98773.88;5158686;27;20058;-56
2023/06/22 04:38:08;;;;;;;20.27;13.85;;;;;;;29.14;100.00;98784.84;5158591;27;20336;-53
2023/06/22 04:40:33;;;;;;;22.13;14.45;;;;;;;29.08;100.00;98776.34;5158897;27;20050;-55
2023/06/22 04:43:02;;;;;;;20.27;13.68;;;;;;;29.17;100.00;98762.03;5158466;27;20380;-56
2023/06/22 04:45:28;;;;;;;18.70;13.52;;;;;;;29.51;100.00;98782.78;5158989;27;20095;-54
2023/06/22 04:47:54;;;;;;;21.10;12.77;;;;;;;29.85;100.00;98771.69;5158440;27;20085;-58
2023/06/22 04:50:21;;;;;;;23.15;14.80;;;;;;;30.09;100.00;98818.56;5158748;27;20198;-59
2023/06/22 04:52:46;;;;;;;25.65;14.30;;;;;;;30.34;100.00;98820.50;5158453;27;20125;-59
2023/06/22 04:55:18;;;;;;;27.20;17.80;;;;;;;30.43;100.00;98844.97;5158888;27;20396;-55
2023/06/22 04:57:44;;;;;;;24.95;16.33;;;;;;;30.70;100.00;98849.13;5158307;27;20389;-60
2023/06/22 05:00:12;;;;;;;29.15;20.27;;;;;;;31.08;100.00;98887.31;5158559;27;20412;-57
2023/06/22 05:02:38;;;;;;;30.60;23.02;;;;;;;31.03;100.00;98905.06;5158411;27;20066;-59
2023/06/22 05:05:06;;;;;;;32.63;21.83;;;;;;;31.28;100.00;98903.28;5158421;27;20065;-60
2023/06/22 05:07:33;;;;;;;35.45;22.10;;;;;;;31.70;100.00;98909.25;5158228;27;20053;-53
2023/06/22 05:09:59;;;;;;;29.63;18.85;;;;;;;31.76;100.00;98915.69;5158102;27;20211;-61
2023/06/22 05:12:25;;;;;;;21.60;15.55;;;;;;;31.65;100.00;98930.59;5158364;27;20421;-60
2023/06/22 05:14:51;;;;;;;18.70;13.95;;;;;;;31.74;100.00;98924.69;5158159;27;20047;-59
2023/06/22 05:17:19;;;;;;;15.82;12.80;;;;;;;32.13;97.24;98948.63;5158402;27;20085;-60
2023/06/22 05:19:48;;;;;;;21.00;12.98;;;;;;;32.24;98.96;98945.75;5157949;27;20050;-54
2023/06/22 05:22:14;;;;;;;14.75;11.18;;;;;;;32.45;98.93;98951.91;5158403;27;20051;-56
2023/06/22 05:24:40;;;;;;;19.60;12.65;;;;;;;32.68;95.69;98947.69;5157820;27;20137;-61
2023/06/22 05:27:07;;;;;;;15.82;11.40;;;;;;;32.81;94.42;98949.97;5158213;27;20093;-59
2023/06/22 05:29:33;;;;;;;19.08;13.63;;;;;;;33.06;94.84;98942.38;5157433;27;20129;-58
2023/06/22 05:31:59;;;;;;;13.95;10.98;;;;;;;33.07;89.34;98963.78;5157773;27;20138;-60
2023/06/22 05:34:25;;;;;;;16.33;14.07;;;;;;;33.22;90.70;98955.69;5157987;27;20316;-59
2023/06/22 05:36:51;;;;;;;13.73;9.30;;;;;;;33.44;82.60;98973.88;5157660;27;20050;-58
2023/06/22 05:39:17;;;;;;;14.35;10.82;;;;;;;33.70;84.46;98962.84;5157972;27;20047;-62
2023/06/22 05:41:44;;;;;;;14.77;9.68;;;;;;;33.65;84.22;98960.81;5157644;27;20055;-61
2023/06/22 05:44:11;;;;;;;9.98;8.85;;;;;;;33.71;83.26;98961.53;5158140;27;20046;-61
2023/06/22 05:46:39;;;;;;;11.52;9.15;;;;;;;33.91;85.68;98962.41;5157409;27;20042;-57
2023/06/22 05:49:05;;;;;;;10.10;9.10;;;;;;;34.41;84.53;98956.22;5157595;27;20137;-59
2023/06/22 05:51:31;;;;;;;10.25;8.98;;;;;;;34.34;79.39;98973.88;5157159;27;20058;-62
2023/06/22 05:53:57;;;;;;;13.07;9.05;;;;;;;34.65;78.81;98961.13;5157568;27;20104;-62
2023/06/22 05:56:23;;;;;;;9.40;8.50;;;;;;;34.53;79.11;98964.66;5157095;27;20051;-64
2023/06/22 05:58:49;;;;;;;11.88;9.38;;;;;;;34.59;78.90;98966.16;5157497;27;20103;-62
2023/06/22 06:01:15;;;;;;;11.80;9.98;;;;;;;34.78;74.68;98977.53;5157665;27;20065;-63
2023/06/22 06:03:42;;;;;;;15.95;9.10;;;;;;;34.96;73.92;98973.19;5157237;27;20096;-62
2023/06/22 06:06:08;;;;;;;12.98;9.35;;;;;;;34.14;76.30;98963.75;5157348;27;20050;-60
2023/06/22 06:08:34;;;;;;;12.18;9.10;;;;;;;34.93;68.77;98979.94;5157298;27;20146;-63
2023/06/22 06:11:00;;;;;;;14.60;8.52;;;;;;;34.23;72.97;98974.03;5157086;27;20086;-57
2023/06/22 06:13:26;;;;;;;11.82;8.75;;;;;;;34.18;78.78;98966.31;5157070;27;20056;-57
2023/06/22 06:15:54;;;;;;;13.85;9.65;;;;;;;34.12;79.55;98963.53;5157429;27;20043;-54
2023/06/22 06:18:20;;;;;;;15.23;8.43;;;;;;;35.01;74.28;98974.41;5156843;27;20057;-61
2023/06/22 06:20:47;;;;;;;14.05;8.70;;;;;;;35.26;75.10;98970.19;5157453;27;20051;-62
2023/06/22 06:23:13;;;;;;;10.73;8.88;;;;;;;35.52;72.24;98971.63;5157358;27;20057;-61
2023/06/22 06:25:39;;;;;;;10.13;8.25;;;;;;;35.37;73.60;98963.53;5157294;27;20046;-58
2023/06/22 06:28:05;;;;;;;9.95;7.32;;;;;;;35.57;70.26;98973.63;5157007;27;20089;-53
2023/06/22 06:30:31;;;;;;;11.45;7.40;;;;;;;35.97;68.49;98976.59;5156833;27;20050;-54
2023/06/22 06:32:57;;;;;;;11.48;7.57;;;;;;;35.28;68.38;98966.78;5156823;27;20149;-59
2023/06/22 06:35:23;;;;;;;9.50;7.22;;;;;;;35.63;69.57;98974.31;5156599;27;20114;-60
2023/06/22 06:37:51;;;;;;;10.68;6.75;;;;;;;35.86;69.49;98966.16;5156890;27;20102;-61
2023/06/22 06:40:18;;;;;;;9.93;7.30;;;;;;;35.95;69.55;98974.25;5156598;27;20382;-60
2023/06/22 06:42:45;;;;;;;8.68;7.25;;;;;;;35.56;67.54;98972.09;5159853;27;20051;-57
2023/06/22 06:45:12;;;;;;;8.63;7.75;;;;;;;35.49;68.31;98964.91;5160041;27;20384;-60
2023/06/22 06:47:38;;;;;;;12.32;8.07;;;;;;;35.65;70.56;98962.34;5160432;27;20436;-57
2023/06/22 06:50:06;;;;;;;11.10;7.47;;;;;;;36.16;66.90;98967.97;5159967;27;20103;-58
2023/06/22 06:52:32;;;;;;;9.85;7.05;;;;;;;36.26;65.55;98971.94;5160766;27;20051;-53
2023/06/22 06:54:59;;;;;;;8.70;7.10;;;;;;;35.97;65.27;98974.50;5160089;27;20107;-60
2023/06/22 06:57:28;;;;;;;7.50;6.60;;;;;;;35.64;64.35;98964.44;5159736;27;20202;-57
2023/06/22 06:59:55;;;;;;;12.38;6.80;;;;;;;35.28;65.53;98970.41;5160077;27;20046;-62
2023/06/22 07:02:21;;;;;;;7.22;6.40;;;;;;;35.20;65.53;98972.34;5159901;27;20054;-58
2023/06/22 07:04:47;;;;;;;7.20;6.50;;;;;;;36.09;62.09;98966.53;5160202;27;20042;-56
2023/06/22 07:07:14;;;;;;;8.50;6.03;;;;;;;36.14;65.12;98970.59;5159957;27;20057;-54
2023/06/22 07:09:40;;;;;;;7.00;5.88;;;;;;;35.77;63.32;98967.31;5159991;27;20402;-58
2023/06/22 07:12:07;;;;;;;7.30;5.88;;;;;;;35.23;63.15;98962.72;5159996;27;20046;-55
2023/06/22 07:14:33;;;;;;;7.88;5.47;;;;;;;35.24;62.35;98961.41;5160159;27;20082;-60
2023/06/22 07:16:59;;;;;;;7.20;6.40;;;;;;;34.99;64.29;98966.41;5159637;27;20089;-60
2023/06/22 07:19:26;;;;;;;6.60;5.93;;;;;;;35.45;63.20;98958.75;5160187;27;20043;-63
2023/06/22 07:21:52;;;;;;;6.60;5.75;;;;;;;36.31;61.48;98968.19;5159615;27;20051;-55
2023/06/22 07:24:19;;;;;;;9.43;6.50;;;;;;;36.60;61.57;98966.34;5159902;27;20467;-58
2023/06/22 07:26:46;;;;;;;6.13;5.50;;;;;;;35.44;60.99;98951.50;5159782;27;20051;-57
2023/06/22 07:29:12;;;;;;;7.70;5.60;;;;;;;35.05;62.94;98954.94;5159665;27;20097;-58
2023/06/22 07:31:40;;;;;;;10.88;6.50;;;;;;;35.21;63.42;98953.16;5159668;27;20063;-61
2023/06/22 07:34:05;;;;;;;7.70;5.82;;;;;;;35.11;65.31;98950.69;5159576;27;20070;-63
2023/06/22 07:36:31;;;;;;;6.35;5.75;;;;;;;35.19;66.47;98950.06;5159561;27;20423;-65
2023/06/22 07:38:57;;;;;;;11.63;5.30;;;;;;;35.56;62.65;98958.59;5159565;27;20050;-59
2023/06/22 07:41:23;;;;;;;11.88;5.60;;;;;;;34.93;66.24;98957.16;5159705;27;20456;-55
2023/06/22 07:43:50;;;;;;;7.95;5.10;;;;;;;35.83;61.69;98962.28;5159376;27;20059;-58
2023/06/22 07:46:16;;;;;;;9.15;5.63;;;;;;;35.28;57.32;98958.25;5159802;27;20416;-55
2023/06/22 07:48:43;;;;;;;7.70;5.82;;;;;;;35.25;60.94;98954.38;5159197;27;20138;-55
2023/06/22 07:51:12;;;;;;;6.47;5.03;;;;;;;36.04;60.78;98953.13;5159594;27;20043;-57
2023/06/22 07:53:38;;;;;;;5.55;4.88;;;;;;;36.18;59.39;98963.25;5158909;27;20054;-55
2023/06/22 07:56:06;;;;;;;8.20;6.30;;;;;;;36.91;57.42;98961.78;5159892;27;20051;-60
2023/06/22 07:58:33;;;;;;;6.32;4.88;;;;;;;36.38;57.65;98961.81;5159272;27;20042;-59
2023/06/22 08:00:59;;;;;;;6.03;5.38;;;;;;;37.02;56.95;98966.50;5158839;27;20058;-57
2023/06/22 08:03:25;;;;;;;6.53;5.40;;;;;;;37.53;57.01;98963.28;5159055;27;20057;-57
2023/06/22 08:05:51;;;;;;;5.80;5.30;;;;;;;37.64;56.15;98965.09;5158574;27;20043;-56
2023/06/22 08:08:17;;;;;;;7.32;5.10;;;;;;;37.04;57.56;98963.13;5159356;27;20078;-54
2023/06/22 08:10:43;;;;;;;9.88;5.25;;;;;;;37.66;56.38;98963.22;5158794;27;20054;-55
2023/06/22 08:13:10;;;;;;;7.95;5.28;;;;;;;37.88;54.78;98958.25;5159237;27;20054;-60
2023/06/22 08:15:36;;;;;;;8.18;6.65;;;;;;;36.77;56.16;98951.72;5158850;27;20309;-59
2023/06/22 08:18:02;;;;;;;8.25;5.05;;;;;;;36.48;55.90;98954.34;5159171;27;20042;-59
2023/06/22 08:20:29;;;;;;;5.97;5.13;;;;;;;36.36;55.45;98958.75;5158624;27;20069;-54
2023/06/22 08:22:57;;;;;;;5.82;5.25;;;;;;;37.48;54.54;98951.97;5158885;27;20051;-56
2023/06/22 08:25:23;;;;;;;9.48;5.80;;;;;;;38.04;55.36;98953.44;5158982;27;20058;-54
2023/06/22 08:27:50;;;;;;;9.63;6.00;;;;;;;37.64;56.35;98945.06;5158828;27;20110;-58
2023/06/22 08:30:17;;;;;;;7.38;5.78;;;;;;;38.22;55.47;98940.97;5158863;27;20141;-56
2023/06/22 08:32:43;;;;;;;9.63;6.20;;;;;;;36.41;57.24;98937.13;5158931;27;20042;-54
2023/06/22 08:35:09;;;;;;;6.93;5.97;;;;;;;36.41;57.57;98943.59;5158840;27;20320;-53
2023/06/22 08:37:36;;;;;;;7.88;5.90;;;;;;;36.04;56.67;98933.94;5158435;27;20435;-56
2023/06/22 08:40:05;;;;;;;8.43;5.47;;;;;;;36.28;56.06;98935.03;5158800;27;20357;-56
2023/06/22 08:42:31;;;;;;;6.68;6.07;;;;;;;36.33;58.45;98934.16;5158319;27;20046;-53
2023/06/22 08:44:58;;;;;;;8.48;5.80;;;;;;;36.56;56.28;98939.47;5158724;27;20054;-63
2023/06/22 08:47:24;;;;;;;6.78;6.07;;;;;;;35.58;56.52;98938.09;5158206;27;20050;-56
2023/06/22 08:49:50;;;;;;;9.60;5.85;;;;;;;35.17;57.01;98932.78;5158445;27;20046;-60
2023/06/22 08:52:17;;;;;;;6.95;6.13;;;;;;;36.24;56.72;98932.50;5158466;27;20054;-53
2023/06/22 08:54:44;;;;;;;7.40;5.82;;;;;;;35.86;55.60;98931.91;5158153;27;20122;-55
2023/06/22 08:57:10;;;;;;;6.15;5.65;;;;;;;36.92;55.45;98931.13;5158535;27;20137;-53
2023/06/22 08:59:36;;;;;;;13.20;6.22;;;;;;;36.68;56.44;98924.38;5158346;27;20057;-59
2023/06/22 09:02:02;;;;;;;7.38;5.90;;;;;;;35.75;56.44;98932.88;5158678;27;20047;-59
2023/06/22 09:04:28;;;;;;;5.80;5.32;;;;;;;36.19;55.46;98930.56;5157169;27;20096;-54
2023/06/22 09:06:54;;;;;;;8.10;5.65;;;;;;;36.20;55.27;98925.63;5158726;27;20191;-56
2023/06/22 09:09:21;;;;;;;5.32;4.93;;;;;;;35.98;56.18;98930.38;5158027;27;20079;-50
2023/06/22 09:11:48;;;;;;;7.30;5.53;;;;;;;36.72;53.24;98926.88;5158401;27;20071;-57
2023/06/22 09:14:14;;;;;;;6.55;4.93;;;;;;;35.79;55.23;98918.31;5157995;27;20137;-60
2023/06/22 09:16:40;;;;;;;5.82;5.32;;;;;;;35.43;56.25;98920.72;5158452;27;20058;-61
2023/06/22 09:19:06;;;;;;;6.30;5.80;;;;;;;35.81;56.63;98918.53;5158273;27;20047;-56
2023/06/22 09:21:32;;;;;;;9.07;5.80;;;;;;;35.91;58.35;98911.06;5158061;27;20058;-52
2023/06/22 09:23:58;;;;;;;7.90;5.65;;;;;;;34.29;57.71;98905.66;5158257;27;20059;-56
2023/06/22 09:26:24;;;;;;;6.07;5.60;;;;;;;35.56;55.36;98904.44;5158077;27;20062;-58
2023/06/22 09:28:51;;;;;;;6.68;5.50;;;;;;;35.09;56.85;98909.84;5158077;27;20057;-56
2023/06/22 09:31:17;;;;;;;6.63;5.63;;;;;;;34.27;57.77;98894.06;5158028;27;20054;-59
2023/06/22 09:33:44;;;;;;;6.40;5.78;;;;;;;33.86;59.94;98887.25;5158068;27;20377;-60
2023/06/22 09:36:10;;;;;;;6.13;5.63;;;;;;;33.91;60.67;98899.84;5157863;27;20053;-62
2023/06/22 09:38:36;;;;;;;8.70;6.43;;;;;;;33.81;60.91;98892.97;5157995;27;20086;-56
2023/06/22 09:41:02;;;;;;;9.52;6.22;;;;;;;34.51;59.72;98893.25;5157551;27;20463;-62
2023/06/22 09:43:29;;;;;;;7.93;5.70;;;;;;;33.84;62.46;98891.91;5157877;27;20145;-61
2023/06/22 09:45:56;;;;;;;7.75;6.55;;;;;;;33.54;62.45;98889.09;5157372;27;20133;-62
2023/06/22 09:48:22;;;;;;;6.78;6.10;;;;;;;33.61;62.01;98892.13;5157515;27;20093;-63
2023/06/22 09:50:48;;;;;;;6.72;6.00;;;;;;;33.04;64.23;98874.72;5157408;27;20046;-61
2023/06/22 09:53:14;;;;;;;10.57;5.63;;;;;;;32.90;65.77;98872.22;5157445;27;20062;-53
2023/06/22 09:55:40;;;;;;;7.80;5.95;;;;;;;32.42;66.72;98879.16;5157420;27;20081;-56
2023/06/22 09:58:06;;;;;;;10.90;6.53;;;;;;;32.28;69.73;98878.97;5157138;27;20392;-54
2023/06/22 10:00:32;;;;;;;7.85;5.80;;;;;;;32.29;68.35;98874.84;5157836;27;20058;-61
2023/06/22 10:02:59;;;;;;;8.40;7.13;;;;;;;32.59;67.98;98868.56;5157278;27;20051;-65
2023/06/22 10:05:25;;;;;;;13.68;6.85;;;;;;;32.57;66.91;98869.06;5157579;27;20476;-64
2023/06/22 10:07:51;;;;;;;15.65;7.25;;;;;;;33.08;64.83;98863.09;5157205;27;20047;-59
2023/06/22 10:10:17;;;;;;;81.88;13.45;;;;;;;32.87;65.63;98859.09;5157486;27;20086;-56
2023/06/22 10:12:45;;;;;;;100.85;15.18;;;;;;;32.53;67.08;98856.47;5157148;27;20061;-61
2023/06/22 10:15:11;;;;;;;9.85;6.55;;;;;;;32.12;66.83;98865.59;5158156;27;20088;-61
2023/06/22 10:17:37;;;;;;;6.63;5.57;;;;;;;32.55;64.94;98857.44;5161027;27;20130;-57
2023/06/22 10:20:11;;;;;;;5.45;5.05;;;;;;;32.37;65.41;98855.22;5160835;27;20137;-54
2023/06/22 10:22:38;;;;;;;12.75;6.28;;;;;;;33.06;58.58;98862.06;5160864;27;20042;-58
2023/06/22 10:25:05;;;;;;;6.93;5.20;;;;;;;32.78;62.82;98849.56;5160212;27;20047;-58
2023/06/22 10:27:31;;;;;;;6.82;6.07;;;;;;;33.80;59.77;98852.41;5160748;27;20099;-61
2023/06/22 10:29:57;;;;;;;6.95;5.55;;;;;;;33.33;60.48;98851.81;5160434;27;20111;-56
2023/06/22 10:32:23;;;;;;;9.07;5.22;;;;;;;33.08;61.79;98842.44;5160797;27;20103;-55
2023/06/22 10:34:49;;;;;;;5.53;5.13;;;;;;;33.22;60.89;98846.97;5160385;27;20440;-53
2023/06/22 10:37:15;;;;;;;8.38;5.60;;;;;;;33.76;61.07;98845.47;5160775;27;20126;-55
2023/06/22 10:39:41;;;;;;;8.15;7.32;;;;;;;34.26;58.63;98853.47;5160780;27;20054;-54
2023/06/22 10:42:07;;;;;;;7.28;5.50;;;;;;;33.33;56.79;98860.34;5160790;27;20055;-59
2023/06/22 10:44:33;;;;;;;8.68;4.50;;;;;;;33.96;55.92;98862.06;5160383;27;20047;-59
2023/06/22 10:46:59;;;;;;;5.40;4.70;;;;;;;34.65;53.83;98855.78;5160604;27;20043;-59
2023/06/22 10:49:25;;;;;;;7.47;4.95;;;;;;;35.07;54.28;98855.47;5160486;27;20145;-55
2023/06/22 10:51:51;;;;;;;6.20;5.05;;;;;;;34.87;54.09;98851.88;5159992;27;20082;-53
2023/06/22 10:54:19;;;;;;;5.47;4.90;;;;;;;35.28;52.50;98850.72;5160305;27;20137;-54
2023/06/22 10:56:45;;;;;;;6.68;4.93;;;;;;;34.77;54.43;98853.56;5160104;27;20058;-57
2023/06/22 10:59:11;;;;;;;5.38;4.97;;;;;;;34.73;54.07;98846.66;5160300;27;20061;-61
2023/06/22 11:01:37;;;;;;;4.78;4.38;;;;;;;34.43;54.30;98858.94;5159471;27;20054;-55
2023/06/22 11:04:03;;;;;;;15.25;4.60;;;;;;;33.70;55.22;98854.84;5160081;27;20088;-53
2023/06/22 11:06:29;;;;;;;5.45;4.93;;;;;;;33.12;54.59;98849.38;5160013;27;20315;-56
2023/06/22 11:08:55;;;;;;;5.50;4.57;;;;;;;33.50;54.75;98847.53;5160194;27;20043;-54
2023/06/22 11:11:21;;;;;;;5.78;5.18;;;;;;;33.61;54.79;98840.97;5159457;27;20133;-53
2023/06/22 11:13:47;;;;;;;6.22;5.10;;;;;;;33.11;57.89;98842.16;5160055;27;20056;-55
2023/06/22 11:16:13;;;;;;;5.75;5.05;;;;;;;32.78;59.99;98843.91;5159573;27;20186;-52
2023/06/22 11:18:39;;;;;;;5.85;5.28;;;;;;;32.90;60.45;98829.66;5159892;27;20090;-53